Shin-oh Maru — JG5594 — position and weather

sailwx.info

Track history (hours):
 
Tides and Currents Weather Stations Pressure Air Temp Water Temp Dewpoint Dewpoint Depression Visibility Wind Speed Wind Dir Waves Ship Positions

Shin-oh Maru

Last reported at 2014-Sep-19 01:33 UTC. Time now 2014-Sep-19 01:53 UTC.
Position N 35°21' E 140°41'.

Length 161 m; draft 7 m.

Type: Ship (hazmat cat A). MMSI: 431100859.

Date/timePositionNaut miles runAvg speedWind from/ knotsBaromVisibWave heightAir tempDewpointWater temp
2014-Sep-19 01:33N 35°21' E 140°41'2318.9
2014-Sep-19 00:21N 35°40' E 140°56'1518.6
2014-Sep-18 23:32N 35°55' E 141°03'1818.6
2014-Sep-18 22:33N 36°13' E 141°07'59 1.3
2014-Sep-17 01:23N 37°09' E 141°30'1818.4
2014-Sep-17 00:23N 36°51' E 141°24'1918.3
2014-Sep-16 23:20N 36°32' E 141°18'1518.2
2014-Sep-16 22:32N 36°18' E 141°14'1818.3
2014-Sep-16 21:32N 36°00' E 141°09'1818.3
2014-Sep-16 20:33N 35°43' E 141°03'1918.5
2014-Sep-16 19:31N 35°27' E 140°50'1919.3
2014-Sep-16 18:33N 35°13' E 140°35'2020.2
2014-Sep-16 17:33N 34°60' E 140°16'2219.8
2014-Sep-16 16:26N 34°52' E 139°51'1416.2
2014-Sep-16 15:33N 35°04' E 139°43'1514.8
2014-Sep-16 14:33N 35°19' E 139°43'1515.5
2014-Sep-16 13:34N 35°34' E 139°49'5 5.0
2014-Sep-16 12:33N 35°38' E 139°46'0 0.0
2014-Sep-16 11:32N 35°38' E 139°46'0 0.0
2014-Sep-16 10:26N 35°38' E 139°46'0 0.0
2014-Sep-16 09:32N 35°38' E 139°46'0 0.0
2014-Sep-16 07:32N 35°38' E 139°46'0 0.0
2014-Sep-16 06:32N 35°38' E 139°46'0 0.0
2014-Sep-16 05:29N 35°38' E 139°46'0 0.0
2014-Sep-16 04:26N 35°38' E 139°46'0 0.0
2014-Sep-16 03:33N 35°38' E 139°46'2 2.3
2014-Sep-16 02:33N 35°36' E 139°47'5 5.0
2014-Sep-16 01:32N 35°34' E 139°53'0 0.0
2014-Sep-16 00:32N 35°34' E 139°53'0 0.0
2014-Sep-15 23:32N 35°34' E 139°53'0 0.0
2014-Sep-15 22:32N 35°34' E 139°53'0 0.0
2014-Sep-15 21:32N 35°34' E 139°53'0 0.0
2014-Sep-15 20:32N 35°34' E 139°53'0 0.0
2014-Sep-15 19:32N 35°34' E 139°53'0 0.0
2014-Sep-15 18:32N 35°34' E 139°53'0 0.0
2014-Sep-15 17:32N 35°34' E 139°53'0 0.0
2014-Sep-15 16:20N 35°34' E 139°53'0 0.1
2014-Sep-15 15:32N 35°34' E 139°53'0 0.0
2014-Sep-15 14:32N 35°34' E 139°53'0 0.0
2014-Sep-15 13:26N 35°34' E 139°53'0 0.0
2014-Sep-15 12:32N 35°34' E 139°53'0 0.0
2014-Sep-15 11:32N 35°34' E 139°53'0 0.0
2014-Sep-15 10:32N 35°34' E 139°53'0 0.0
2014-Sep-15 09:32N 35°34' E 139°53'0 0.0
2014-Sep-15 08:32N 35°34' E 139°53'0 0.0
2014-Sep-15 07:32N 35°34' E 139°53'0 0.0
2014-Sep-15 06:32N 35°34' E 139°53'0 0.0
2014-Sep-15 05:29N 35°34' E 139°53'0 0.0
2014-Sep-15 04:32N 35°34' E 139°53'0 0.0
2014-Sep-15 03:32N 35°34' E 139°53'0 0.0
2014-Sep-15 02:32N 35°34' E 139°53'0 0.0
2014-Sep-15 01:32N 35°34' E 139°53'0 0.0
2014-Sep-15 00:32N 35°34' E 139°53'0 0.0
2014-Sep-14 23:29N 35°34' E 139°53'0 0.0
2014-Sep-14 22:32N 35°34' E 139°53'0 0.0
2014-Sep-14 21:32N 35°34' E 139°53'0 0.0
2014-Sep-14 20:32N 35°34' E 139°53'0 0.0
2014-Sep-14 19:32N 35°34' E 139°53'0 0.0
2014-Sep-14 18:32N 35°34' E 139°53'0 0.1
2014-Sep-14 17:32N 35°34' E 139°53'0 0.0
2014-Sep-14 16:32N 35°34' E 139°53'0 0.0
2014-Sep-14 15:32N 35°34' E 139°53'0 0.0
2014-Sep-14 14:32N 35°34' E 139°53'0 0.0
2014-Sep-14 13:32N 35°34' E 139°53'0 0.1
2014-Sep-14 12:32N 35°34' E 139°53'0 0.0
2014-Sep-14 11:32N 35°34' E 139°53'0 0.1
2014-Sep-14 10:32N 35°34' E 139°53'0 0.0
2014-Sep-14 09:29N 35°34' E 139°53'0 0.0
2014-Sep-14 08:32N 35°34' E 139°53'6 5.9
2014-Sep-14 07:33N 35°29' E 139°51'1313.1
2014-Sep-14 06:33N 35°16' E 139°46'1616.1
2014-Sep-14 05:33N 35°00' E 139°44'1414.5
2014-Sep-14 04:33N 34°53' E 139°59'1818.0
2014-Sep-14 03:33N 35°02' E 140°18'1615.9
2014-Sep-14 02:33N 35°12' E 140°33'2018.4
2014-Sep-14 01:29N 35°28' E 140°47'7919.5
2014-Sep-13 21:27N 36°44' E 141°15'29 0.6
2014-Sep-11 22:31N 36°15' E 141°13'1818.5
2014-Sep-11 21:32N 35°57' E 141°07'1818.5
2014-Sep-11 20:33N 35°39' E 141°02'1717.4
2014-Sep-11 19:33N 35°25' E 140°49'1818.5
2014-Sep-11 18:33N 35°12' E 140°33'2019.9
2014-Sep-11 17:33N 34°59' E 140°15'2318.1
2014-Sep-11 16:18N 34°52' E 139°49'1316.7
2014-Sep-11 15:33N 35°03' E 139°43'1515.4
2014-Sep-11 14:33N 35°19' E 139°43'1615.9
2014-Sep-11 13:33N 35°34' E 139°50'5 5.3
2014-Sep-11 12:33N 35°38' E 139°46'0 0.0
2014-Sep-11 11:33N 35°38' E 139°46'0 0.0
2014-Sep-11 10:30N 35°38' E 139°46'0 0.0
2014-Sep-11 09:24N 35°38' E 139°46'5 6.0
2014-Sep-11 08:33N 35°34' E 139°49'1514.1
2014-Sep-11 07:31N 35°20' E 139°44'1414.9
2014-Sep-11 06:33N 35°06' E 139°46'1614.4
2014-Sep-11 05:28N 34°53' E 139°57'1516.7
2014-Sep-11 04:33N 35°00' E 140°13'1816.5
2014-Sep-11 03:26N 35°11' E 140°31'1718.7
2014-Sep-11 02:33N 35°24' E 140°43'1918.3
2014-Sep-11 01:33N 35°40' E 140°56'1818.6
2014-Sep-11 00:33N 35°57' E 141°03'  
Track history (hours):
 
Tides and Currents Weather Stations Pressure Air Temp Water Temp Dewpoint Dewpoint Depression Visibility Wind Speed Wind Dir Waves Ship Positions

Shin-oh Maru

Last reported at 2014-Sep-19 01:33 UTC. Time now 2014-Sep-19 01:53 UTC.
Position N 35°21' E 140°41'.

Length 161 m; draft 7 m.

Type: Ship (hazmat cat A). MMSI: 431100859.

Date/timePositionNaut miles runAvg speedWind from/ knotsBaromVisibWave heightAir tempDewpointWater temp
2014-Sep-19 01:33N 35°21' E 140°41'2318.9
2014-Sep-19 00:21N 35°40' E 140°56'1518.6
2014-Sep-18 23:32N 35°55' E 141°03'1818.6
2014-Sep-18 22:33N 36°13' E 141°07'59 1.3
2014-Sep-17 01:23N 37°09' E 141°30'1818.4
2014-Sep-17 00:23N 36°51' E 141°24'1918.3
2014-Sep-16 23:20N 36°32' E 141°18'1518.2
2014-Sep-16 22:32N 36°18' E 141°14'1818.3
2014-Sep-16 21:32N 36°00' E 141°09'1818.3
2014-Sep-16 20:33N 35°43' E 141°03'1918.5
2014-Sep-16 19:31N 35°27' E 140°50'1919.3
2014-Sep-16 18:33N 35°13' E 140°35'2020.2
2014-Sep-16 17:33N 34°60' E 140°16'2219.8
2014-Sep-16 16:26N 34°52' E 139°51'1416.2
2014-Sep-16 15:33N 35°04' E 139°43'1514.8
2014-Sep-16 14:33N 35°19' E 139°43'1515.5
2014-Sep-16 13:34N 35°34' E 139°49'5 5.0
2014-Sep-16 12:33N 35°38' E 139°46'0 0.0
2014-Sep-16 11:32N 35°38' E 139°46'0 0.0
2014-Sep-16 10:26N 35°38' E 139°46'0 0.0
2014-Sep-16 09:32N 35°38' E 139°46'0 0.0
2014-Sep-16 07:32N 35°38' E 139°46'0 0.0
2014-Sep-16 06:32N 35°38' E 139°46'0 0.0
2014-Sep-16 05:29N 35°38' E 139°46'0 0.0
2014-Sep-16 04:26N 35°38' E 139°46'0 0.0
2014-Sep-16 03:33N 35°38' E 139°46'2 2.3
2014-Sep-16 02:33N 35°36' E 139°47'5 5.0
2014-Sep-16 01:32N 35°34' E 139°53'0 0.0
2014-Sep-16 00:32N 35°34' E 139°53'0 0.0
2014-Sep-15 23:32N 35°34' E 139°53'0 0.0
2014-Sep-15 22:32N 35°34' E 139°53'0 0.0
2014-Sep-15 21:32N 35°34' E 139°53'0 0.0
2014-Sep-15 20:32N 35°34' E 139°53'0 0.0
2014-Sep-15 19:32N 35°34' E 139°53'0 0.0
2014-Sep-15 18:32N 35°34' E 139°53'0 0.0
2014-Sep-15 17:32N 35°34' E 139°53'0 0.0
2014-Sep-15 16:20N 35°34' E 139°53'0 0.1
2014-Sep-15 15:32N 35°34' E 139°53'0 0.0
2014-Sep-15 14:32N 35°34' E 139°53'0 0.0
2014-Sep-15 13:26N 35°34' E 139°53'0 0.0
2014-Sep-15 12:32N 35°34' E 139°53'0 0.0
2014-Sep-15 11:32N 35°34' E 139°53'0 0.0
2014-Sep-15 10:32N 35°34' E 139°53'0 0.0
2014-Sep-15 09:32N 35°34' E 139°53'0 0.0
2014-Sep-15 08:32N 35°34' E 139°53'0 0.0
2014-Sep-15 07:32N 35°34' E 139°53'0 0.0
2014-Sep-15 06:32N 35°34' E 139°53'0 0.0
2014-Sep-15 05:29N 35°34' E 139°53'0 0.0
2014-Sep-15 04:32N 35°34' E 139°53'0 0.0
2014-Sep-15 03:32N 35°34' E 139°53'0 0.0
2014-Sep-15 02:32N 35°34' E 139°53'0 0.0
2014-Sep-15 01:32N 35°34' E 139°53'0 0.0
2014-Sep-15 00:32N 35°34' E 139°53'0 0.0
2014-Sep-14 23:29N 35°34' E 139°53'0 0.0
2014-Sep-14 22:32N 35°34' E 139°53'0 0.0
2014-Sep-14 21:32N 35°34' E 139°53'0 0.0
2014-Sep-14 20:32N 35°34' E 139°53'0 0.0
2014-Sep-14 19:32N 35°34' E 139°53'0 0.0
2014-Sep-14 18:32N 35°34' E 139°53'0 0.1
2014-Sep-14 17:32N 35°34' E 139°53'0 0.0
2014-Sep-14 16:32N 35°34' E 139°53'0 0.0
2014-Sep-14 15:32N 35°34' E 139°53'0 0.0
2014-Sep-14 14:32N 35°34' E 139°53'0 0.0
2014-Sep-14 13:32N 35°34' E 139°53'0 0.1
2014-Sep-14 12:32N 35°34' E 139°53'0 0.0
2014-Sep-14 11:32N 35°34' E 139°53'0 0.1
2014-Sep-14 10:32N 35°34' E 139°53'0 0.0
2014-Sep-14 09:29N 35°34' E 139°53'0 0.0
2014-Sep-14 08:32N 35°34' E 139°53'6 5.9
2014-Sep-14 07:33N 35°29' E 139°51'1313.1
2014-Sep-14 06:33N 35°16' E 139°46'1616.1
2014-Sep-14 05:33N 35°00' E 139°44'1414.5
2014-Sep-14 04:33N 34°53' E 139°59'1818.0
2014-Sep-14 03:33N 35°02' E 140°18'1615.9
2014-Sep-14 02:33N 35°12' E 140°33'2018.4
2014-Sep-14 01:29N 35°28' E 140°47'7919.5
2014-Sep-13 21:27N 36°44' E 141°15'29 0.6
2014-Sep-11 22:31N 36°15' E 141°13'1818.5
2014-Sep-11 21:32N 35°57' E 141°07'1818.5
2014-Sep-11 20:33N 35°39' E 141°02'1717.4
2014-Sep-11 19:33N 35°25' E 140°49'1818.5
2014-Sep-11 18:33N 35°12' E 140°33'2019.9
2014-Sep-11 17:33N 34°59' E 140°15'2318.1
2014-Sep-11 16:18N 34°52' E 139°49'1316.7
2014-Sep-11 15:33N 35°03' E 139°43'1515.4
2014-Sep-11 14:33N 35°19' E 139°43'1615.9
2014-Sep-11 13:33N 35°34' E 139°50'5 5.3
2014-Sep-11 12:33N 35°38' E 139°46'0 0.0
2014-Sep-11 11:33N 35°38' E 139°46'0 0.0
2014-Sep-11 10:30N 35°38' E 139°46'0 0.0
2014-Sep-11 09:24N 35°38' E 139°46'5 6.0
2014-Sep-11 08:33N 35°34' E 139°49'1514.1
2014-Sep-11 07:31N 35°20' E 139°44'1414.9
2014-Sep-11 06:33N 35°06' E 139°46'1614.4
2014-Sep-11 05:28N 34°53' E 139°57'1516.7
2014-Sep-11 04:33N 35°00' E 140°13'1816.5
2014-Sep-11 03:26N 35°11' E 140°31'1718.7
2014-Sep-11 02:33N 35°24' E 140°43'1918.3
2014-Sep-11 01:33N 35°40' E 140°56'1818.6
2014-Sep-11 00:33N 35°57' E 141°03'  

Dump ship's entire track history